Airport View

Enter AWOS ICAO identifier for current METAR.

ex. KFNL

PAWI 250053Z AUTO 04009KT OVC003 00/M02 A2962 RMK SLP031 T00001017 TSNO VIA AUTODIAL

25 May 2020 02:05

Frequency: 132.25

Phone: 907-763-8881

Other Area AWOS: PATQ - PABR - PPIZ

TAF PABR 242339Z 2500/2524 07011KT P6SM VCFG OVC007 FM250400 09008KT 6SM BR BKN004 OVC007 FM250900 09008KT 1/2SM FZFG OVC004 FM252200 09009KT 6SM BR OVC004